createdAt,value
2018-08-28T12:09:33.946Z,100666.92
2018-08-28T12:12:02.926Z,100667.91
2018-08-28T12:14:31.946Z,100669.31
2018-08-28T12:22:15.966Z,100666.20
2018-08-28T12:24:44.936Z,100666.57
2018-08-28T12:27:14.266Z,100668.27
2018-08-28T12:29:43.546Z,100661.71
2018-08-28T12:32:34.562Z,100659.73
2018-08-28T12:35:48.266Z,100664.24
2018-08-28T12:38:17.381Z,100652.54
2018-08-28T12:40:46.614Z,100653.89
2018-08-28T12:43:15.945Z,100650.87
2018-08-28T12:45:44.917Z,100649.12
2018-08-28T12:48:14.139Z,100644.34
2018-08-28T12:50:43.050Z,100641.29
2018-08-28T12:56:04.788Z,100632.56
2018-08-28T12:58:34.233Z,100627.33
2018-08-28T13:01:03.578Z,100630.79
2018-08-28T13:03:32.631Z,100628.61
2018-08-28T13:08:55.105Z,100628.15
2018-08-28T13:11:24.061Z,100620.29
2018-08-28T13:13:53.070Z,100611.99
2018-08-28T13:16:22.498Z,100612.00
2018-08-28T13:18:51.450Z,100606.33
2018-08-28T13:21:20.435Z,100601.08
2018-08-28T13:23:49.440Z,100608.53
2018-08-28T13:26:18.462Z,100610.25
2018-08-28T13:28:47.410Z,100600.65
2018-08-28T13:31:19.425Z,100599.77
2018-08-28T13:33:48.633Z,100589.70
2018-08-28T13:36:17.725Z,100592.31
2018-08-28T13:38:46.768Z,100594.53
2018-08-28T13:41:17.527Z,100591.88
2018-08-28T14:32:42.635Z,100585.34
2018-08-28T14:35:11.643Z,100576.61
2018-08-28T14:37:40.745Z,100578.36
2018-08-28T14:40:09.773Z,100576.17
2018-08-28T14:42:38.902Z,100573.55
2018-08-28T14:45:08.214Z,100569.63
2018-08-28T14:47:41.152Z,100565.23
2018-08-28T14:50:10.900Z,100560.86
2018-08-28T14:52:39.982Z,100556.96
2018-08-28T14:55:09.077Z,100561.73
2018-08-28T14:57:38.078Z,100551.25
2018-08-28T15:00:07.353Z,100552.56
2018-08-28T15:02:36.355Z,100549.51
2018-08-28T15:05:06.179Z,100552.13
2018-08-28T15:07:43.117Z,100549.51
2018-08-28T15:10:12.274Z,100549.94
2018-08-28T15:12:41.454Z,100553.03
2018-08-28T15:15:10.479Z,100548.20
2018-08-28T15:26:18.699Z,100538.19
2018-08-28T15:28:53.854Z,100538.63
2018-08-28T15:31:23.548Z,100536.00
2018-08-28T15:39:41.531Z,100538.16
2018-08-28T15:42:28.781Z,100539.90
2018-08-28T15:47:50.324Z,100536.41
2018-08-28T15:50:19.395Z,100534.66
2018-08-28T15:52:48.546Z,100537.72
2018-08-28T15:55:17.755Z,100532.91
2018-08-28T15:57:46.801Z,100529.86
2018-08-28T16:00:16.015Z,100523.74
2018-08-28T16:02:45.075Z,100524.62
2018-08-28T16:05:14.155Z,100521.56
2018-08-28T16:07:43.260Z,100520.28
2018-08-28T16:10:12.543Z,100518.50
2018-08-28T17:43:30.316Z,100475.74
2018-08-28T17:45:59.760Z,100477.05
2018-08-28T17:48:28.915Z,100479.27
2018-08-28T17:50:58.070Z,100475.77
2018-08-28T17:53:27.257Z,100481.45
2018-08-28T17:55:56.472Z,100481.88
2018-08-28T18:00:16.909Z,100483.19
2018-08-28T18:14:39.296Z,100470.97
2018-08-28T18:23:01.724Z,100472.28
2018-08-28T18:28:30.844Z,100474.42
2018-08-28T18:31:02.301Z,100474.42
2018-08-28T18:36:44.023Z,100467.87
2018-08-28T20:34:28.044Z,100437.75
2018-08-28T20:37:09.882Z,100438.62
2018-08-28T20:57:07.204Z,100425.56
2018-08-28T20:59:36.583Z,100425.12
2018-08-28T21:02:06.884Z,100421.62
2018-08-28T21:04:36.224Z,100425.12
2018-08-28T21:07:06.855Z,100425.12
2018-08-28T21:09:36.464Z,100421.19
2018-08-28T21:56:49.543Z,100391.50
2018-08-28T21:59:25.983Z,100394.53
2018-08-28T22:01:55.283Z,100391.94
